Terminal Aerodrome Forecast
Issued by NWS

Home | Current Version | Previous Version | Text Only | Print | Product List | Glossary On
Versions: 1 2 3 4 5 6 7 8 9 10 11 12
000
FTUS46 KSGX 292324
TAFSNA
TAF
KSNA 292324Z 3000/3024 VRB04KT P6SM SKC
     FM301200 VRB04KT P6SM BKN008
     FM301500 VRB04KT P6SM SKC
     FM301900 22009KT P6SM SKC=

USA.gov is the U.S. government's official web portal to all federal, state and local government web resources and services.